createdAt,value
2022-12-05T00:01:43.876Z,41.35
2022-12-05T00:04:12.521Z,44.13
2022-12-05T00:06:43.082Z,40.42
2022-12-05T00:09:11.559Z,42.45
2022-12-05T00:11:39.656Z,41.63
2022-12-05T00:14:08.553Z,40.70
2022-12-05T00:16:37.055Z,40.70
2022-12-05T00:19:06.313Z,38.90
2022-12-05T00:21:34.665Z,41.75
2022-12-05T00:24:02.650Z,41.03
2022-12-05T00:26:31.030Z,40.08
2022-12-05T00:28:59.108Z,46.47
2022-12-05T00:31:27.343Z,44.80
2022-12-05T00:33:55.435Z,35.97
2022-12-05T00:36:26.666Z,43.65
2022-12-05T00:38:56.657Z,49.28
2022-12-05T00:41:25.085Z,43.65
2022-12-05T00:43:55.592Z,39.67
2022-12-05T00:46:24.592Z,38.97
2022-12-05T00:48:53.952Z,38.33
2022-12-05T00:51:28.653Z,39.53
2022-12-05T00:53:58.377Z,44.03
2022-12-05T00:56:26.493Z,42.80
2022-12-05T00:58:57.291Z,40.85
2022-12-05T01:01:27.509Z,39.53
2022-12-05T01:03:56.498Z,38.08
2022-12-05T01:06:24.531Z,38.95
2022-12-05T01:08:52.055Z,39.60
2022-12-05T01:11:20.073Z,44.15
2022-12-05T01:13:47.659Z,36.13
2022-12-05T01:16:18.449Z,41.95
2022-12-05T01:18:46.033Z,44.75
2022-12-05T01:21:13.617Z,42.10
2022-12-05T01:23:41.050Z,41.95
2022-12-05T01:26:10.042Z,48.35
2022-12-05T01:28:37.328Z,45.53
2022-12-05T01:31:08.880Z,43.10
2022-12-05T01:33:37.037Z,39.90
2022-12-05T01:36:04.672Z,45.80
2022-12-05T01:38:32.144Z,39.65
2022-12-05T01:41:04.510Z,36.20
2022-12-05T01:43:32.427Z,38.90
2022-12-05T01:45:59.834Z,43.45
2022-12-05T01:48:30.397Z,39.45
2022-12-05T01:50:59.427Z,42.38
2022-12-05T01:53:27.342Z,42.22
2022-12-05T01:55:55.615Z,38.08
2022-12-05T01:58:23.299Z,41.67
2022-12-05T02:00:50.792Z,43.80
2022-12-05T02:03:19.526Z,39.17
2022-12-05T02:05:52.421Z,40.42
2022-12-05T02:08:20.011Z,38.35
2022-12-05T02:10:50.410Z,38.42
2022-12-05T02:13:17.907Z,36.42
2022-12-05T02:15:52.421Z,45.28
2022-12-05T02:18:29.511Z,39.75
2022-12-05T02:21:15.601Z,43.50
2022-12-05T02:23:53.455Z,42.78
2022-12-05T02:26:20.938Z,35.58
2022-12-05T02:29:03.761Z,39.38
2022-12-05T02:31:53.732Z,37.22
2022-12-05T02:34:25.946Z,40.60
2022-12-05T02:36:59.643Z,35.78
2022-12-05T02:39:27.257Z,41.15
2022-12-05T02:42:05.447Z,42.00
2022-12-05T02:44:42.136Z,36.13
2022-12-05T02:47:10.030Z,36.55
2022-12-05T02:49:38.395Z,42.45
2022-12-05T02:52:07.420Z,35.03
2022-12-05T02:54:37.474Z,37.88
2022-12-05T02:57:05.297Z,37.22
2022-12-05T02:59:33.406Z,40.05
2022-12-05T03:02:00.508Z,34.65
2022-12-05T03:04:28.345Z,38.30
2022-12-05T03:07:05.629Z,36.72
2022-12-05T03:09:38.421Z,38.95
2022-12-05T03:12:11.627Z,36.60
2022-12-05T03:14:42.829Z,35.25
2022-12-05T03:17:18.151Z,38.10
2022-12-05T03:19:50.379Z,30.42
2022-12-05T03:22:25.399Z,36.25
2022-12-05T03:24:56.196Z,37.08
2022-12-05T03:27:43.645Z,37.88
2022-12-05T03:30:16.994Z,36.40
2022-12-05T03:32:55.824Z,33.47
2022-12-05T03:35:38.603Z,35.42
2022-12-05T03:38:11.595Z,33.85
2022-12-05T03:40:43.242Z,36.20
2022-12-05T03:43:15.429Z,37.67
2022-12-05T03:45:45.725Z,32.00
2022-12-05T03:48:20.331Z,35.50
2022-12-05T03:50:48.554Z,35.13
2022-12-05T03:53:25.891Z,35.88
2022-12-05T03:56:20.000Z,28.80
2022-12-05T04:01:17.106Z,29.83
2022-12-05T04:03:47.558Z,31.90
2022-12-05T04:06:19.374Z,28.45
2022-12-05T04:08:52.421Z,32.28
2022-12-05T04:11:21.910Z,33.75
2022-12-05T04:13:53.333Z,29.90
2022-12-05T04:16:50.480Z,33.00
2022-12-05T04:19:20.365Z,38.08
2022-12-05T04:21:50.136Z,29.42
2022-12-05T04:24:37.614Z,31.58
2022-12-05T04:27:07.494Z,28.92
2022-12-05T04:29:40.155Z,31.67
2022-12-05T04:32:12.326Z,29.53
2022-12-05T04:34:40.684Z,31.77
2022-12-05T04:37:12.072Z,32.55
2022-12-05T04:39:46.407Z,30.70
2022-12-05T04:42:19.020Z,32.65
2022-12-05T04:44:58.940Z,34.37
2022-12-05T04:47:28.959Z,31.40
2022-12-05T04:49:56.579Z,34.13
2022-12-05T04:52:24.225Z,31.30
2022-12-05T04:54:55.437Z,33.30
2022-12-05T04:57:28.457Z,34.28
2022-12-05T04:59:55.908Z,31.15
2022-12-05T05:02:29.369Z,30.05
2022-12-05T05:04:58.994Z,28.25
2022-12-05T05:07:26.643Z,32.38
2022-12-05T05:09:54.190Z,28.50
2022-12-05T05:12:21.326Z,30.02
2022-12-05T05:14:48.449Z,30.90
2022-12-05T05:17:15.617Z,29.35
2022-12-05T05:19:43.004Z,32.85
2022-12-05T05:22:12.823Z,32.20
2022-12-05T05:24:42.831Z,31.45
2022-12-05T05:27:12.895Z,32.60
2022-12-05T05:29:43.157Z,31.67
2022-12-05T05:32:10.566Z,30.70
2022-12-05T05:34:40.138Z,34.72
2022-12-05T05:37:07.281Z,35.60
2022-12-05T05:39:34.481Z,34.00
2022-12-05T05:42:01.935Z,39.10
2022-12-05T05:44:29.251Z,39.80
2022-12-05T05:46:56.938Z,36.45
2022-12-05T05:49:24.399Z,26.85
2022-12-05T05:51:53.398Z,30.58
2022-12-05T05:54:21.541Z,37.08
2022-12-05T05:56:52.820Z,32.35
2022-12-05T05:59:20.148Z,36.10
2022-12-05T06:01:47.724Z,34.83
2022-12-05T06:04:14.950Z,40.22
2022-12-05T06:06:42.293Z,40.80
2022-12-05T06:09:09.376Z,43.58
2022-12-05T06:11:36.399Z,38.97
2022-12-05T06:14:03.528Z,36.83
2022-12-05T06:16:35.343Z,37.80
2022-12-05T06:19:02.961Z,36.00
2022-12-05T06:21:30.169Z,34.20
2022-12-05T06:23:57.295Z,35.85
2022-12-05T06:26:24.465Z,36.50
2022-12-05T06:28:53.718Z,32.45
2022-12-05T06:31:24.011Z,29.80
2022-12-05T06:33:53.839Z,37.10
2022-12-05T06:36:21.981Z,36.70
2022-12-05T06:38:49.851Z,32.92
2022-12-05T06:41:17.845Z,33.13
2022-12-05T06:43:45.143Z,31.80
2022-12-05T06:46:13.079Z,35.63
2022-12-05T06:48:40.505Z,34.17
2022-12-05T06:51:10.359Z,36.80
2022-12-05T06:53:38.445Z,32.00
2022-12-05T06:56:10.786Z,32.83
2022-12-05T06:58:42.603Z,36.45
2022-12-05T07:01:39.433Z,32.22
2022-12-05T07:04:12.827Z,31.75
2022-12-05T07:06:49.920Z,32.20
2022-12-05T07:09:18.300Z,36.25
2022-12-05T07:11:50.157Z,33.65
2022-12-05T07:14:38.867Z,32.92
2022-12-05T07:17:04.913Z,33.92
2022-12-05T07:19:45.150Z,37.65
2022-12-05T07:22:19.675Z,32.77
2022-12-05T07:24:47.237Z,32.45
2022-12-05T07:27:14.925Z,30.30
2022-12-05T07:29:42.739Z,32.05
2022-12-05T07:32:10.092Z,35.15
2022-12-05T07:34:38.944Z,34.80
2022-12-05T07:37:06.297Z,37.78
2022-12-05T07:39:34.257Z,31.52
2022-12-05T07:42:02.022Z,34.65
2022-12-05T07:44:29.314Z,34.22
2022-12-05T07:46:57.246Z,32.38
2022-12-05T07:49:24.704Z,37.35
2022-12-05T07:51:54.934Z,35.22
2022-12-05T07:54:22.233Z,35.35
2022-12-05T07:56:49.531Z,42.53
2022-12-05T07:59:18.931Z,36.28
2022-12-05T08:01:46.384Z,39.85
2022-12-05T08:04:15.578Z,36.25
2022-12-05T08:06:43.721Z,39.38
2022-12-05T08:09:11.816Z,38.00
2022-12-05T08:11:41.930Z,39.53
2022-12-05T08:14:09.095Z,31.70
2022-12-05T08:16:36.382Z,40.88
2022-12-05T08:19:07.335Z,33.83
2022-12-05T08:21:44.380Z,33.33
2022-12-05T08:24:12.316Z,34.72
2022-12-05T08:26:40.222Z,33.78
2022-12-05T08:29:12.294Z,40.30
2022-12-05T08:31:44.150Z,34.65
2022-12-05T08:34:12.971Z,30.35
2022-12-05T08:36:45.322Z,31.85
2022-12-05T08:39:15.343Z,34.35
2022-12-05T08:41:46.329Z,32.20
2022-12-05T08:44:17.000Z,35.85
2022-12-05T08:46:45.013Z,35.10
2022-12-05T08:49:12.942Z,34.05
2022-12-05T08:51:40.952Z,29.75
2022-12-05T08:54:08.864Z,30.27
2022-12-05T08:56:36.197Z,29.77
2022-12-05T08:59:06.016Z,34.70
2022-12-05T09:01:34.239Z,33.08
2022-12-05T09:04:02.791Z,28.65
2022-12-05T09:06:31.517Z,31.55
2022-12-05T09:09:00.479Z,29.42
2022-12-05T09:11:28.974Z,26.95
2022-12-05T09:13:57.674Z,27.20
2022-12-05T09:16:35.178Z,34.22
2022-12-05T09:19:05.831Z,29.48
2022-12-05T09:21:33.550Z,31.48
2022-12-05T09:24:00.769Z,28.27
2022-12-05T09:26:28.746Z,24.88
2022-12-05T09:28:55.865Z,26.85
2022-12-05T09:31:25.220Z,28.95
2022-12-05T09:33:53.101Z,30.20
2022-12-05T09:36:21.207Z,28.05
2022-12-05T09:38:48.495Z,23.27
2022-12-05T09:41:55.956Z,22.58
2022-12-05T09:44:41.745Z,22.27
2022-12-05T09:47:29.926Z,22.80
2022-12-05T09:50:15.822Z,24.90
2022-12-05T09:52:55.294Z,19.10
2022-12-05T09:55:22.805Z,21.58
2022-12-05T09:57:54.917Z,22.58
2022-12-05T10:00:22.299Z,20.88
2022-12-05T10:02:56.044Z,21.08
2022-12-05T10:05:55.137Z,26.88
2022-12-05T10:08:25.837Z,20.77
2022-12-05T10:11:01.307Z,22.67
2022-12-05T10:13:31.775Z,24.85
2022-12-05T10:16:04.164Z,20.38
2022-12-05T10:18:45.665Z,22.20
2022-12-05T10:21:13.178Z,21.13
2022-12-05T10:23:58.412Z,21.02
2022-12-05T10:26:29.005Z,20.17
2022-12-05T10:28:59.486Z,20.48
2022-12-05T10:31:31.265Z,19.15
2022-12-05T10:34:03.815Z,17.77
2022-12-05T10:36:32.028Z,16.95
2022-12-05T10:38:59.748Z,18.52
2022-12-05T10:41:28.683Z,16.98
2022-12-05T10:43:57.501Z,17.92
2022-12-05T10:46:25.061Z,17.05
2022-12-05T10:48:54.535Z,18.45
2022-12-05T10:51:24.780Z,20.13
2022-12-05T10:53:55.460Z,17.60
2022-12-05T10:56:41.181Z,19.33
2022-12-05T10:59:12.812Z,18.27
2022-12-05T11:02:06.770Z,17.10
2022-12-05T11:04:43.407Z,18.98
2022-12-05T11:07:22.751Z,17.33
2022-12-05T11:09:50.071Z,19.02
2022-12-05T11:12:21.755Z,16.58
2022-12-05T11:14:55.256Z,18.13
2022-12-05T11:17:25.817Z,17.30
2022-12-05T11:19:56.037Z,14.07
2022-12-05T11:22:30.723Z,13.75
2022-12-05T11:25:00.810Z,12.98
2022-12-05T11:27:32.740Z,10.50
2022-12-05T11:30:05.871Z,8.60
2022-12-05T11:32:35.020Z,7.63
2022-12-05T11:35:14.992Z,7.57
2022-12-05T11:37:55.832Z,8.05
2022-12-05T11:40:29.400Z,8.73
2022-12-05T11:42:58.782Z,10.10
2022-12-05T11:45:32.517Z,9.27
2022-12-05T11:48:17.973Z,8.25
2022-12-05T11:50:44.974Z,7.30
2022-12-05T11:53:24.692Z,7.07
2022-12-05T11:56:04.424Z,7.57
2022-12-05T11:58:31.982Z,8.15
2022-12-05T12:01:18.711Z,9.48
2022-12-05T12:04:05.056Z,7.75
2022-12-05T12:06:34.687Z,7.25
2022-12-05T12:09:18.844Z,7.13
2022-12-05T12:11:49.906Z,9.27
2022-12-05T12:14:26.625Z,6.97
2022-12-05T12:17:16.454Z,8.82
2022-12-05T12:19:55.133Z,8.35
2022-12-05T12:22:28.657Z,7.78
2022-12-05T12:27:48.056Z,10.55
2022-12-05T12:30:22.725Z,9.20
2022-12-05T12:32:53.511Z,9.07
2022-12-05T12:35:31.424Z,9.50
2022-12-05T12:38:05.022Z,8.10
2022-12-05T12:41:07.798Z,7.47
2022-12-05T12:43:59.372Z,7.70
2022-12-05T12:46:35.764Z,10.10
2022-12-05T12:49:20.938Z,9.35
2022-12-05T12:51:54.891Z,9.52
2022-12-05T12:55:01.696Z,6.85
2022-12-05T12:57:23.975Z,6.78
2022-12-05T13:00:04.672Z,6.07
2022-12-05T13:02:42.879Z,6.82
2022-12-05T13:05:31.617Z,6.75
2022-12-05T13:08:12.251Z,7.20
2022-12-05T13:10:41.988Z,7.05
2022-12-05T13:13:17.249Z,5.38
2022-12-05T13:15:49.154Z,6.00
2022-12-05T13:18:21.114Z,6.18
2022-12-05T13:20:55.431Z,5.47
2022-12-05T13:23:28.067Z,6.10
2022-12-05T13:25:56.763Z,5.72
2022-12-05T13:28:36.090Z,5.43
2022-12-05T13:31:07.514Z,6.25
2022-12-05T13:33:44.656Z,5.00
2022-12-05T13:36:31.613Z,5.38
2022-12-05T13:39:25.731Z,6.03
2022-12-05T13:44:46.664Z,5.80
2022-12-05T13:47:40.515Z,7.28
2022-12-05T13:50:08.022Z,6.13
2022-12-05T13:52:53.606Z,10.32
2022-12-05T13:55:35.367Z,7.70
2022-12-05T13:58:23.541Z,9.70
2022-12-05T14:00:53.473Z,9.10
2022-12-05T14:03:21.021Z,9.20
2022-12-05T14:05:49.901Z,8.48
2022-12-05T14:08:36.157Z,6.72
2022-12-05T14:11:06.363Z,8.55
2022-12-05T14:13:35.573Z,6.25
2022-12-05T14:16:21.748Z,6.93
2022-12-05T14:19:33.976Z,7.07
2022-12-05T14:22:28.686Z,10.20
2022-12-05T14:25:02.768Z,5.07
2022-12-05T14:27:49.660Z,9.60
2022-12-05T14:30:35.683Z,6.70
2022-12-05T14:33:05.795Z,6.93
2022-12-05T14:35:42.133Z,6.15
2022-12-05T14:38:20.827Z,6.32
2022-12-05T14:40:54.116Z,7.18
2022-12-05T14:45:55.417Z,6.70
2022-12-05T14:48:34.556Z,7.45
2022-12-05T14:51:01.811Z,10.00
2022-12-05T14:53:43.473Z,7.30
2022-12-05T14:56:16.545Z,7.70
2022-12-05T14:58:53.142Z,6.15
2022-12-05T15:01:25.960Z,7.78
2022-12-05T15:04:12.379Z,7.18
2022-12-05T15:06:48.672Z,9.05
2022-12-05T15:09:37.648Z,6.25
2022-12-05T15:12:09.729Z,7.78
2022-12-05T15:14:43.704Z,8.73
2022-12-05T15:17:19.051Z,6.25
2022-12-05T15:19:48.530Z,9.48
2022-12-05T15:22:17.524Z,9.43
2022-12-05T15:24:45.702Z,6.32
2022-12-05T15:27:13.760Z,7.07
2022-12-05T15:29:41.705Z,8.00
2022-12-05T15:32:11.594Z,7.18
2022-12-05T15:34:54.852Z,7.20
2022-12-05T15:37:40.555Z,8.85
2022-12-05T15:40:22.279Z,7.07
2022-12-05T15:42:50.898Z,8.05
2022-12-05T15:45:29.127Z,7.78
2022-12-05T15:48:22.744Z,11.07
2022-12-05T15:53:22.961Z,8.20
2022-12-05T15:56:16.709Z,7.97
2022-12-05T15:58:50.061Z,11.63
2022-12-05T16:01:27.611Z,9.88
2022-12-05T16:06:44.751Z,9.13
2022-12-05T16:09:19.877Z,10.80
2022-12-05T16:11:58.486Z,9.45
2022-12-05T16:17:16.593Z,8.45
2022-12-05T16:19:44.417Z,7.97
2022-12-05T16:22:32.600Z,11.38
2022-12-05T16:25:04.718Z,10.50
2022-12-05T16:27:34.497Z,7.97
2022-12-05T16:30:10.168Z,8.38
2022-12-05T16:32:37.769Z,9.07
2022-12-05T16:35:05.497Z,8.30
2022-12-05T16:37:33.262Z,8.15
2022-12-05T16:40:00.886Z,6.93
2022-12-05T16:42:31.848Z,6.25
2022-12-05T16:45:03.318Z,8.90
2022-12-05T16:47:42.801Z,6.43
2022-12-05T16:50:28.679Z,9.07
2022-12-05T16:53:03.289Z,7.32
2022-12-05T16:55:37.252Z,7.20
2022-12-05T16:58:05.411Z,8.93
2022-12-05T17:00:33.306Z,8.65
2022-12-05T17:03:32.404Z,8.00
2022-12-05T17:06:18.479Z,8.98
2022-12-05T17:08:46.241Z,7.82
2022-12-05T17:11:21.482Z,7.97
2022-12-05T17:13:56.118Z,13.75
2022-12-05T17:16:24.182Z,7.78
2022-12-05T17:18:58.687Z,9.20
2022-12-05T17:21:27.507Z,11.82
2022-12-05T17:24:14.009Z,8.18
2022-12-05T17:26:41.670Z,8.23
2022-12-05T17:29:11.307Z,7.32
2022-12-05T17:31:40.981Z,8.55
2022-12-05T17:34:14.163Z,9.57
2022-12-05T17:36:41.615Z,11.50
2022-12-05T17:39:09.677Z,7.43
2022-12-05T17:41:40.518Z,7.03
2022-12-05T17:44:14.253Z,8.68
2022-12-05T17:46:47.595Z,9.15
2022-12-05T17:49:16.097Z,9.35
2022-12-05T17:52:05.469Z,9.65
2022-12-05T17:54:32.209Z,7.45
2022-12-05T17:56:59.885Z,6.68
2022-12-05T17:59:34.415Z,6.28
2022-12-05T18:02:22.308Z,7.22
2022-12-05T18:05:15.939Z,9.55
2022-12-05T18:07:46.912Z,9.82
2022-12-05T18:10:18.108Z,7.55
2022-12-05T18:15:46.509Z,10.70
2022-12-05T18:18:24.130Z,11.57
2022-12-05T18:20:57.487Z,9.57
2022-12-05T18:23:26.986Z,10.27
2022-12-05T18:26:00.578Z,11.00
2022-12-05T18:31:27.048Z,7.25
2022-12-05T18:34:14.969Z,5.97
2022-12-05T18:36:59.556Z,7.72
2022-12-05T18:39:27.644Z,8.77
2022-12-05T18:41:54.798Z,7.10
2022-12-05T18:44:22.389Z,7.45
2022-12-05T18:46:53.024Z,8.93
2022-12-05T18:49:20.367Z,6.47
2022-12-05T18:51:48.781Z,8.95
2022-12-05T18:54:19.643Z,8.15
2022-12-05T18:56:50.588Z,7.00
2022-12-05T18:59:19.513Z,5.78
2022-12-05T19:01:47.572Z,5.43
2022-12-05T19:04:16.691Z,6.53
2022-12-05T19:06:48.328Z,6.07
2022-12-05T19:09:17.018Z,9.35
2022-12-05T19:11:47.585Z,6.25
2022-12-05T19:14:16.470Z,7.85
2022-12-05T19:16:44.708Z,7.70
2022-12-05T19:19:19.904Z,5.63
2022-12-05T19:21:47.326Z,8.73
2022-12-05T19:24:16.246Z,8.50
2022-12-05T19:26:44.003Z,8.63
2022-12-05T19:29:17.921Z,10.27
2022-12-05T19:31:48.434Z,4.57
2022-12-05T19:34:15.713Z,6.38
2022-12-05T19:36:44.092Z,6.28
2022-12-05T19:39:15.747Z,6.13
2022-12-05T19:41:43.098Z,6.50
2022-12-05T19:44:15.402Z,7.45
2022-12-05T19:46:43.735Z,8.98
2022-12-05T19:49:12.643Z,5.88
2022-12-05T19:51:42.763Z,6.85
2022-12-05T19:54:11.893Z,5.45
2022-12-05T19:56:43.095Z,6.43
2022-12-05T19:59:13.732Z,6.63
2022-12-05T20:01:41.560Z,7.13
2022-12-05T20:04:13.120Z,7.57
2022-12-05T20:06:42.504Z,8.45
2022-12-05T20:09:10.612Z,10.00
2022-12-05T20:11:41.765Z,11.57
2022-12-05T20:14:11.898Z,15.25
2022-12-05T20:16:39.486Z,8.65
2022-12-05T20:19:07.173Z,9.10
2022-12-05T20:21:39.876Z,9.80
2022-12-05T20:24:07.879Z,13.57
2022-12-05T20:26:37.376Z,9.25
2022-12-05T20:29:05.345Z,6.97
2022-12-05T20:31:36.282Z,7.18
2022-12-05T20:34:04.188Z,7.72
2022-12-05T20:36:32.552Z,8.18
2022-12-05T20:39:07.313Z,9.93
2022-12-05T20:41:35.032Z,10.20
2022-12-05T20:44:03.550Z,12.15
2022-12-05T20:46:32.272Z,10.60
2022-12-05T20:49:00.157Z,10.15
2022-12-05T20:51:27.264Z,8.75
2022-12-05T20:53:54.616Z,6.65
2022-12-05T20:56:25.195Z,10.10
2022-12-05T20:58:53.588Z,8.18
2022-12-05T21:01:21.768Z,7.35
2022-12-05T21:03:50.246Z,8.73
2022-12-05T21:06:23.729Z,10.00
2022-12-05T21:08:53.494Z,9.68
2022-12-05T21:11:20.952Z,11.02
2022-12-05T21:13:48.070Z,8.93
2022-12-05T21:16:16.911Z,9.35
2022-12-05T21:18:44.700Z,11.15
2022-12-05T21:21:14.785Z,8.68
2022-12-05T21:23:42.803Z,6.88
2022-12-05T21:26:11.803Z,9.35
2022-12-05T21:31:25.264Z,7.35
2022-12-05T21:33:54.486Z,8.07
2022-12-05T21:36:22.425Z,7.53
2022-12-05T21:38:55.631Z,6.35
2022-12-05T21:41:25.845Z,6.07
2022-12-05T21:43:55.229Z,5.63
2022-12-05T21:46:23.489Z,6.78
2022-12-05T21:48:50.874Z,7.55
2022-12-05T21:51:18.284Z,5.57
2022-12-05T21:53:45.531Z,6.18
2022-12-05T21:56:16.076Z,7.45
2022-12-05T21:58:43.750Z,5.63
2022-12-05T22:01:17.826Z,6.95
2022-12-05T22:03:45.172Z,5.82
2022-12-05T22:06:14.754Z,5.55
2022-12-05T22:08:42.472Z,6.53
2022-12-05T22:11:11.236Z,7.35
2022-12-05T22:13:41.106Z,5.78
2022-12-05T22:16:11.291Z,6.25
2022-12-05T22:18:38.751Z,7.60
2022-12-05T22:21:07.643Z,5.47
2022-12-05T22:23:35.405Z,7.55
2022-12-05T22:26:07.111Z,7.47
2022-12-05T22:28:34.602Z,6.32
2022-12-05T22:31:04.220Z,5.65
2022-12-05T22:33:34.307Z,4.80
2022-12-05T22:36:03.318Z,6.32
2022-12-05T22:38:35.137Z,6.15
2022-12-05T22:41:07.290Z,7.20
2022-12-05T22:43:40.563Z,5.05
2022-12-05T22:46:09.428Z,8.68
2022-12-05T22:48:37.146Z,5.80
2022-12-05T22:51:05.215Z,7.13
2022-12-05T22:53:32.990Z,5.40
2022-12-05T22:56:08.114Z,6.00
2022-12-05T22:58:35.685Z,7.22
2022-12-05T23:01:19.361Z,9.80
2022-12-05T23:03:48.155Z,7.72
2022-12-05T23:06:16.619Z,5.13
2022-12-05T23:08:44.746Z,5.22
2022-12-05T23:11:12.860Z,9.50
2022-12-05T23:13:40.493Z,6.13
2022-12-05T23:16:26.669Z,7.32
2022-12-05T23:19:01.965Z,10.80
2022-12-05T23:21:34.505Z,10.48
2022-12-05T23:24:03.310Z,7.20
2022-12-05T23:26:32.107Z,9.32
2022-12-05T23:28:59.225Z,6.50
2022-12-05T23:31:26.540Z,10.90
2022-12-05T23:33:55.235Z,7.28
2022-12-05T23:36:26.002Z,8.13
2022-12-05T23:38:56.250Z,8.25
2022-12-05T23:41:24.301Z,11.18
2022-12-05T23:43:52.760Z,8.25
2022-12-05T23:46:21.577Z,8.98
2022-12-05T23:48:49.226Z,7.22
2022-12-05T23:51:18.950Z,8.80
2022-12-05T23:53:46.611Z,14.40
2022-12-05T23:56:15.326Z,10.73
2022-12-05T23:58:43.161Z,9.60
